sensor_id;sensor_type;location;lat;lon;timestamp;noise_LAeq;noise_LA_min;noise_LA_max;noise_LA01;noise_LA95
64996;Laerm;51545;51.568;6.998;2023-12-22T00:01:55;48.74;46.61;56.43;;
64996;Laerm;51545;51.568;6.998;2023-12-22T00:04:21;48.83;46.16;57.14;;
64996;Laerm;51545;51.568;6.998;2023-12-22T00:06:48;49.58;46.34;58.68;;
64996;Laerm;51545;51.568;6.998;2023-12-22T00:09:14;49.60;46.71;59.16;;
64996;Laerm;51545;51.568;6.998;2023-12-22T00:11:40;49.40;46.41;58.93;;
64996;Laerm;51545;51.568;6.998;2023-12-22T00:14:06;52.32;46.58;63.17;;
64996;Laerm;51545;51.568;6.998;2023-12-22T00:16:32;48.76;46.18;57.78;;
64996;Laerm;51545;51.568;6.998;2023-12-22T00:18:58;48.04;46.20;53.89;;
64996;Laerm;51545;51.568;6.998;2023-12-22T00:21:24;48.18;46.33;54.03;;
64996;Laerm;51545;51.568;6.998;2023-12-22T00:23:50;48.45;46.48;55.69;;
64996;Laerm;51545;51.568;6.998;2023-12-22T00:26:16;48.28;46.48;53.49;;
64996;Laerm;51545;51.568;6.998;2023-12-22T00:28:43;47.72;46.25;51.68;;
64996;Laerm;51545;51.568;6.998;2023-12-22T00:31:12;48.36;46.29;56.28;;
64996;Laerm;51545;51.568;6.998;2023-12-22T00:33:38;49.00;46.67;55.52;;
64996;Laerm;51545;51.568;6.998;2023-12-22T00:36:04;48.73;46.53;59.48;;
64996;Laerm;51545;51.568;6.998;2023-12-22T00:38:31;49.23;46.82;57.70;;
64996;Laerm;51545;51.568;6.998;2023-12-22T00:40:57;48.39;46.49;53.69;;
64996;Laerm;51545;51.568;6.998;2023-12-22T00:43:23;48.22;46.30;53.03;;
64996;Laerm;51545;51.568;6.998;2023-12-22T00:45:49;48.44;46.12;55.03;;
64996;Laerm;51545;51.568;6.998;2023-12-22T00:48:16;48.76;46.44;55.07;;
64996;Laerm;51545;51.568;6.998;2023-12-22T00:50:42;49.38;46.36;54.61;;
64996;Laerm;51545;51.568;6.998;2023-12-22T00:53:07;49.24;46.42;55.88;;
64996;Laerm;51545;51.568;6.998;2023-12-22T00:55:33;49.52;46.40;57.98;;
64996;Laerm;51545;51.568;6.998;2023-12-22T00:57:59;49.97;46.69;59.16;;
64996;Laerm;51545;51.568;6.998;2023-12-22T01:00:25;49.61;46.61;62.62;;
64996;Laerm;51545;51.568;6.998;2023-12-22T01:02:51;53.37;46.74;63.26;;
64996;Laerm;51545;51.568;6.998;2023-12-22T01:05:17;50.30;46.92;57.81;;
64996;Laerm;51545;51.568;6.998;2023-12-22T01:07:43;50.52;46.39;57.13;;
64996;Laerm;51545;51.568;6.998;2023-12-22T01:10:09;49.31;46.67;59.73;;
64996;Laerm;51545;51.568;6.998;2023-12-22T01:12:35;49.21;46.71;53.60;;
64996;Laerm;51545;51.568;6.998;2023-12-22T01:15:01;50.77;46.90;58.68;;
64996;Laerm;51545;51.568;6.998;2023-12-22T01:17:27;50.73;46.54;64.15;;
64996;Laerm;51545;51.568;6.998;2023-12-22T01:19:53;49.65;46.57;55.52;;
64996;Laerm;51545;51.568;6.998;2023-12-22T01:22:19;50.09;46.93;56.83;;
64996;Laerm;51545;51.568;6.998;2023-12-22T01:24:45;52.03;47.32;58.76;;
64996;Laerm;51545;51.568;6.998;2023-12-22T01:27:11;50.39;47.03;57.47;;
64996;Laerm;51545;51.568;6.998;2023-12-22T01:29:37;50.31;47.06;60.63;;
64996;Laerm;51545;51.568;6.998;2023-12-22T01:32:04;52.95;46.77;61.61;;
64996;Laerm;51545;51.568;6.998;2023-12-22T01:34:30;56.75;47.25;70.06;;
64996;Laerm;51545;51.568;6.998;2023-12-22T01:36:56;51.63;47.16;63.39;;
64996;Laerm;51545;51.568;6.998;2023-12-22T01:39:21;49.78;46.60;59.63;;
64996;Laerm;51545;51.568;6.998;2023-12-22T01:41:47;52.63;47.47;63.38;;
64996;Laerm;51545;51.568;6.998;2023-12-22T01:44:13;54.78;47.40;64.52;;
64996;Laerm;51545;51.568;6.998;2023-12-22T01:46:39;53.76;47.42;64.86;;
64996;Laerm;51545;51.568;6.998;2023-12-22T01:49:06;52.54;47.58;62.74;;
64996;Laerm;51545;51.568;6.998;2023-12-22T01:51:35;50.72;47.53;56.47;;
64996;Laerm;51545;51.568;6.998;2023-12-22T01:54:04;51.66;47.40;61.86;;
64996;Laerm;51545;51.568;6.998;2023-12-22T01:56:30;55.02;47.59;63.37;;
64996;Laerm;51545;51.568;6.998;2023-12-22T01:58:59;54.22;47.20;66.19;;
64996;Laerm;51545;51.568;6.998;2023-12-22T02:01:26;53.54;47.04;68.27;;
64996;Laerm;51545;51.568;6.998;2023-12-22T02:03:53;50.30;47.07;60.30;;
64996;Laerm;51545;51.568;6.998;2023-12-22T02:06:20;53.20;47.78;61.69;;
64996;Laerm;51545;51.568;6.998;2023-12-22T02:08:47;50.50;47.42;60.91;;
64996;Laerm;51545;51.568;6.998;2023-12-22T02:11:16;49.90;47.01;59.95;;
64996;Laerm;51545;51.568;6.998;2023-12-22T02:13:45;50.77;46.79;59.79;;
64996;Laerm;51545;51.568;6.998;2023-12-22T02:16:30;50.56;46.89;60.86;;
64996;Laerm;51545;51.568;6.998;2023-12-22T02:18:59;50.45;47.03;59.69;;
64996;Laerm;51545;51.568;6.998;2023-12-22T02:21:28;50.49;46.92;59.87;;
64996;Laerm;51545;51.568;6.998;2023-12-22T02:23:54;50.16;46.94;58.52;;
64996;Laerm;51545;51.568;6.998;2023-12-22T02:26:33;53.34;46.90;63.59;;
64996;Laerm;51545;51.568;6.998;2023-12-22T02:29:02;54.96;47.38;64.47;;
64996;Laerm;51545;51.568;6.998;2023-12-22T02:31:40;52.62;47.27;65.78;;
64996;Laerm;51545;51.568;6.998;2023-12-22T02:34:14;51.87;47.15;60.14;;
64996;Laerm;51545;51.568;6.998;2023-12-22T02:36:44;51.31;47.31;59.97;;
64996;Laerm;51545;51.568;6.998;2023-12-22T02:39:11;54.61;47.00;62.70;;
64996;Laerm;51545;51.568;6.998;2023-12-22T02:41:38;51.45;47.23;61.30;;
64996;Laerm;51545;51.568;6.998;2023-12-22T02:44:04;54.96;47.37;68.00;;
64996;Laerm;51545;51.568;6.998;2023-12-22T02:46:31;50.39;46.93;60.19;;
64996;Laerm;51545;51.568;6.998;2023-12-22T02:48:57;50.46;46.96;57.88;;
64996;Laerm;51545;51.568;6.998;2023-12-22T02:51:23;50.55;46.96;57.11;;
64996;Laerm;51545;51.568;6.998;2023-12-22T02:53:49;50.66;47.47;61.77;;
64996;Laerm;51545;51.568;6.998;2023-12-22T02:56:14;50.01;46.76;59.09;;
64996;Laerm;51545;51.568;6.998;2023-12-22T02:58:40;49.94;46.87;57.04;;
64996;Laerm;51545;51.568;6.998;2023-12-22T03:01:06;50.72;46.56;58.02;;
64996;Laerm;51545;51.568;6.998;2023-12-22T03:03:32;50.30;47.37;56.11;;
64996;Laerm;51545;51.568;6.998;2023-12-22T03:05:58;49.80;47.27;57.46;;
64996;Laerm;51545;51.568;6.998;2023-12-22T03:08:24;50.10;46.99;59.31;;
64996;Laerm;51545;51.568;6.998;2023-12-22T03:10:50;51.15;47.54;58.93;;
64996;Laerm;51545;51.568;6.998;2023-12-22T03:13:16;51.41;47.13;59.02;;
64996;Laerm;51545;51.568;6.998;2023-12-22T03:15:42;51.83;47.05;58.84;;
64996;Laerm;51545;51.568;6.998;2023-12-22T03:18:09;52.40;47.66;66.25;;
64996;Laerm;51545;51.568;6.998;2023-12-22T03:20:35;52.54;47.13;64.51;;
64996;Laerm;51545;51.568;6.998;2023-12-22T03:23:00;52.37;47.34;61.95;;
64996;Laerm;51545;51.568;6.998;2023-12-22T03:25:26;51.09;46.51;58.10;;
64996;Laerm;51545;51.568;6.998;2023-12-22T03:27:52;51.51;46.90;63.26;;
64996;Laerm;51545;51.568;6.998;2023-12-22T03:30:18;50.42;47.03;59.49;;
64996;Laerm;51545;51.568;6.998;2023-12-22T03:32:44;50.14;46.81;59.10;;
64996;Laerm;51545;51.568;6.998;2023-12-22T03:35:10;51.22;47.32;61.22;;
64996;Laerm;51545;51.568;6.998;2023-12-22T03:37:36;53.78;47.52;63.91;;
64996;Laerm;51545;51.568;6.998;2023-12-22T03:40:02;50.95;47.06;60.20;;
64996;Laerm;51545;51.568;6.998;2023-12-22T03:42:28;50.70;46.80;65.42;;
64996;Laerm;51545;51.568;6.998;2023-12-22T03:44:54;51.81;46.83;63.10;;
64996;Laerm;51545;51.568;6.998;2023-12-22T03:47:20;52.03;47.08;61.05;;
64996;Laerm;51545;51.568;6.998;2023-12-22T03:49:46;50.30;46.75;59.56;;
64996;Laerm;51545;51.568;6.998;2023-12-22T03:52:12;50.27;46.50;57.94;;
64996;Laerm;51545;51.568;6.998;2023-12-22T03:54:38;50.67;46.90;57.44;;
64996;Laerm;51545;51.568;6.998;2023-12-22T03:57:04;50.24;46.56;57.20;;
64996;Laerm;51545;51.568;6.998;2023-12-22T03:59:30;49.82;46.93;55.70;;
64996;Laerm;51545;51.568;6.998;2023-12-22T04:01:57;50.18;46.85;61.13;;
64996;Laerm;51545;51.568;6.998;2023-12-22T04:04:28;50.96;46.64;60.46;;
64996;Laerm;51545;51.568;6.998;2023-12-22T04:06:54;49.58;46.52;56.92;;
64996;Laerm;51545;51.568;6.998;2023-12-22T04:09:20;50.13;46.49;59.07;;
64996;Laerm;51545;51.568;6.998;2023-12-22T04:11:46;49.12;46.66;58.08;;
64996;Laerm;51545;51.568;6.998;2023-12-22T04:14:12;50.02;46.83;60.81;;
64996;Laerm;51545;51.568;6.998;2023-12-22T04:16:38;48.58;46.48;54.54;;
64996;Laerm;51545;51.568;6.998;2023-12-22T04:19:04;49.02;46.79;57.37;;
64996;Laerm;51545;51.568;6.998;2023-12-22T04:21:30;50.16;46.70;58.09;;
64996;Laerm;51545;51.568;6.998;2023-12-22T04:23:56;48.79;46.63;55.23;;
64996;Laerm;51545;51.568;6.998;2023-12-22T04:26:22;48.29;46.23;53.65;;
64996;Laerm;51545;51.568;6.998;2023-12-22T04:28:48;48.82;46.36;55.85;;
64996;Laerm;51545;51.568;6.998;2023-12-22T04:31:14;48.88;46.44;54.52;;
64996;Laerm;51545;51.568;6.998;2023-12-22T04:33:39;48.37;46.15;54.43;;
64996;Laerm;51545;51.568;6.998;2023-12-22T04:36:25;48.40;46.47;54.75;;
64996;Laerm;51545;51.568;6.998;2023-12-22T04:38:51;48.81;46.38;56.76;;
64996;Laerm;51545;51.568;6.998;2023-12-22T04:41:17;48.38;46.26;54.04;;
64996;Laerm;51545;51.568;6.998;2023-12-22T04:43:43;50.12;46.33;60.11;;
64996;Laerm;51545;51.568;6.998;2023-12-22T04:46:09;51.49;46.97;59.13;;
64996;Laerm;51545;51.568;6.998;2023-12-22T04:48:35;48.92;46.82;54.18;;
64996;Laerm;51545;51.568;6.998;2023-12-22T04:51:01;48.06;46.61;52.63;;
64996;Laerm;51545;51.568;6.998;2023-12-22T04:53:27;48.11;46.59;60.33;;
64996;Laerm;51545;51.568;6.998;2023-12-22T04:55:53;48.52;46.40;56.18;;
64996;Laerm;51545;51.568;6.998;2023-12-22T04:58:19;49.09;46.77;55.64;;
64996;Laerm;51545;51.568;6.998;2023-12-22T05:00:45;48.29;46.38;51.89;;
64996;Laerm;51545;51.568;6.998;2023-12-22T05:03:11;48.60;46.68;54.70;;
64996;Laerm;51545;51.568;6.998;2023-12-22T05:05:37;49.39;46.70;56.55;;
64996;Laerm;51545;51.568;6.998;2023-12-22T05:08:03;48.21;46.14;53.73;;
64996;Laerm;51545;51.568;6.998;2023-12-22T05:10:29;48.22;46.58;55.61;;
64996;Laerm;51545;51.568;6.998;2023-12-22T05:12:55;48.63;46.49;55.13;;
64996;Laerm;51545;51.568;6.998;2023-12-22T05:15:21;49.23;46.41;58.16;;
64996;Laerm;51545;51.568;6.998;2023-12-22T05:17:47;48.33;46.63;53.83;;
64996;Laerm;51545;51.568;6.998;2023-12-22T05:20:14;48.18;46.56;56.87;;
64996;Laerm;51545;51.568;6.998;2023-12-22T05:22:41;48.67;46.35;55.52;;
64996;Laerm;51545;51.568;6.998;2023-12-22T05:25:07;48.28;46.42;55.04;;
64996;Laerm;51545;51.568;6.998;2023-12-22T05:27:35;49.16;46.50;54.47;;
64996;Laerm;51545;51.568;6.998;2023-12-22T05:30:04;49.33;47.06;53.11;;
64996;Laerm;51545;51.568;6.998;2023-12-22T05:32:30;49.57;46.68;55.72;;
64996;Laerm;51545;51.568;6.998;2023-12-22T05:34:57;49.27;46.70;54.23;;
64996;Laerm;51545;51.568;6.998;2023-12-22T05:37:22;48.92;46.76;56.82;;
64996;Laerm;51545;51.568;6.998;2023-12-22T05:39:48;48.65;46.65;57.39;;
64996;Laerm;51545;51.568;6.998;2023-12-22T05:42:14;48.39;46.22;56.72;;
64996;Laerm;51545;51.568;6.998;2023-12-22T05:44:40;49.14;46.50;56.68;;
64996;Laerm;51545;51.568;6.998;2023-12-22T05:47:06;48.48;46.44;53.80;;
64996;Laerm;51545;51.568;6.998;2023-12-22T05:49:33;48.10;46.12;55.32;;
64996;Laerm;51545;51.568;6.998;2023-12-22T05:51:59;48.39;46.44;55.27;;
64996;Laerm;51545;51.568;6.998;2023-12-22T05:54:25;48.18;46.43;56.30;;
64996;Laerm;51545;51.568;6.998;2023-12-22T05:56:51;48.71;46.56;54.88;;
64996;Laerm;51545;51.568;6.998;2023-12-22T05:59:18;48.51;46.56;52.95;;
64996;Laerm;51545;51.568;6.998;2023-12-22T06:01:44;48.44;46.52;53.11;;
64996;Laerm;51545;51.568;6.998;2023-12-22T06:04:10;48.61;46.40;55.36;;
64996;Laerm;51545;51.568;6.998;2023-12-22T06:06:36;48.77;46.22;57.73;;
64996;Laerm;51545;51.568;6.998;2023-12-22T06:09:04;48.38;46.34;56.11;;
64996;Laerm;51545;51.568;6.998;2023-12-22T06:11:30;48.16;46.21;54.67;;
64996;Laerm;51545;51.568;6.998;2023-12-22T06:13:56;48.77;46.49;55.11;;
64996;Laerm;51545;51.568;6.998;2023-12-22T06:16:22;48.76;46.52;53.43;;
64996;Laerm;51545;51.568;6.998;2023-12-22T06:18:48;48.54;46.37;54.90;;
64996;Laerm;51545;51.568;6.998;2023-12-22T06:21:15;47.48;46.31;50.93;;
64996;Laerm;51545;51.568;6.998;2023-12-22T06:23:41;48.71;46.47;52.95;;
64996;Laerm;51545;51.568;6.998;2023-12-22T06:26:11;48.22;46.85;50.50;;
64996;Laerm;51545;51.568;6.998;2023-12-22T06:28:38;48.65;46.45;54.51;;
64996;Laerm;51545;51.568;6.998;2023-12-22T06:31:08;48.67;46.81;52.94;;
64996;Laerm;51545;51.568;6.998;2023-12-22T06:33:34;48.37;46.45;55.79;;
64996;Laerm;51545;51.568;6.998;2023-12-22T06:36:00;48.22;46.15;55.72;;
64996;Laerm;51545;51.568;6.998;2023-12-22T06:38:26;48.53;46.27;56.17;;
64996;Laerm;51545;51.568;6.998;2023-12-22T06:40:53;48.45;46.38;53.72;;
64996;Laerm;51545;51.568;6.998;2023-12-22T06:43:19;48.57;46.41;55.28;;
64996;Laerm;51545;51.568;6.998;2023-12-22T06:45:45;48.66;46.08;55.04;;
64996;Laerm;51545;51.568;6.998;2023-12-22T06:48:11;47.78;46.29;53.31;;
64996;Laerm;51545;51.568;6.998;2023-12-22T06:50:39;48.02;46.40;51.59;;
64996;Laerm;51545;51.568;6.998;2023-12-22T06:53:05;49.00;46.30;61.52;;
64996;Laerm;51545;51.568;6.998;2023-12-22T06:55:31;47.66;46.02;52.10;;
64996;Laerm;51545;51.568;6.998;2023-12-22T06:57:57;48.57;46.41;53.28;;
64996;Laerm;51545;51.568;6.998;2023-12-22T07:00:23;48.15;46.00;52.30;;
64996;Laerm;51545;51.568;6.998;2023-12-22T07:02:48;47.67;46.00;51.12;;
64996;Laerm;51545;51.568;6.998;2023-12-22T07:07:50;48.22;46.24;55.75;;
64996;Laerm;51545;51.568;6.998;2023-12-22T07:10:16;48.15;46.11;55.80;;
64996;Laerm;51545;51.568;6.998;2023-12-22T07:12:42;48.59;46.02;55.82;;
64996;Laerm;51545;51.568;6.998;2023-12-22T07:15:08;49.00;46.19;56.76;;
64996;Laerm;51545;51.568;6.998;2023-12-22T07:17:34;48.19;46.61;53.65;;
64996;Laerm;51545;51.568;6.998;2023-12-22T07:20:03;48.35;46.29;52.30;;
64996;Laerm;51545;51.568;6.998;2023-12-22T07:22:29;48.08;46.11;52.19;;
64996;Laerm;51545;51.568;6.998;2023-12-22T07:24:55;48.95;46.13;55.83;;
64996;Laerm;51545;51.568;6.998;2023-12-22T07:27:22;50.36;46.20;57.35;;
64996;Laerm;51545;51.568;6.998;2023-12-22T07:29:47;49.30;46.52;57.54;;
64996;Laerm;51545;51.568;6.998;2023-12-22T07:32:13;47.96;46.13;53.20;;
64996;Laerm;51545;51.568;6.998;2023-12-22T07:34:39;47.82;46.05;52.55;;
64996;Laerm;51545;51.568;6.998;2023-12-22T07:37:05;48.79;46.36;54.43;;
64996;Laerm;51545;51.568;6.998;2023-12-22T07:39:31;47.71;46.32;53.11;;
64996;Laerm;51545;51.568;6.998;2023-12-22T07:41:57;48.18;46.42;54.48;;
64996;Laerm;51545;51.568;6.998;2023-12-22T07:44:24;48.35;46.24;56.36;;
64996;Laerm;51545;51.568;6.998;2023-12-22T07:46:59;48.41;45.91;57.71;;
64996;Laerm;51545;51.568;6.998;2023-12-22T07:49:25;47.77;46.17;53.23;;
64996;Laerm;51545;51.568;6.998;2023-12-22T07:51:52;48.55;46.17;58.91;;
64996;Laerm;51545;51.568;6.998;2023-12-22T07:54:18;48.02;46.22;56.11;;
64996;Laerm;51545;51.568;6.998;2023-12-22T07:56:44;47.91;46.05;54.08;;
64996;Laerm;51545;51.568;6.998;2023-12-22T07:59:10;47.99;46.23;52.93;;
64996;Laerm;51545;51.568;6.998;2023-12-22T08:01:36;48.40;46.15;56.81;;
64996;Laerm;51545;51.568;6.998;2023-12-22T08:04:02;50.07;46.13;57.55;;
64996;Laerm;51545;51.568;6.998;2023-12-22T08:06:28;48.63;46.40;56.11;;
64996;Laerm;51545;51.568;6.998;2023-12-22T08:08:54;48.36;46.21;52.33;;
64996;Laerm;51545;51.568;6.998;2023-12-22T08:11:20;48.10;46.25;54.13;;
64996;Laerm;51545;51.568;6.998;2023-12-22T08:13:47;48.15;46.32;54.43;;
64996;Laerm;51545;51.568;6.998;2023-12-22T08:16:13;50.74;45.98;61.25;;
64996;Laerm;51545;51.568;6.998;2023-12-22T08:18:39;48.53;46.27;56.24;;
64996;Laerm;51545;51.568;6.998;2023-12-22T08:21:06;48.59;46.32;57.04;;
64996;Laerm;51545;51.568;6.998;2023-12-22T08:23:32;49.90;46.10;56.42;;
64996;Laerm;51545;51.568;6.998;2023-12-22T08:25:58;48.73;46.38;56.59;;
64996;Laerm;51545;51.568;6.998;2023-12-22T08:28:24;48.42;46.24;59.12;;
64996;Laerm;51545;51.568;6.998;2023-12-22T08:30:52;48.03;46.59;51.68;;
64996;Laerm;51545;51.568;6.998;2023-12-22T08:33:18;48.20;46.58;52.75;;
64996;Laerm;51545;51.568;6.998;2023-12-22T08:35:44;48.80;46.18;56.31;;
64996;Laerm;51545;51.568;6.998;2023-12-22T08:38:10;48.67;45.93;58.01;;
64996;Laerm;51545;51.568;6.998;2023-12-22T08:40:38;48.14;45.89;54.18;;
64996;Laerm;51545;51.568;6.998;2023-12-22T08:43:06;49.90;46.23;58.60;;
64996;Laerm;51545;51.568;6.998;2023-12-22T08:45:32;49.10;46.24;57.14;;
64996;Laerm;51545;51.568;6.998;2023-12-22T08:47:58;49.43;46.23;56.63;;
64996;Laerm;51545;51.568;6.998;2023-12-22T08:50:24;49.50;46.03;60.54;;
64996;Laerm;51545;51.568;6.998;2023-12-22T08:52:51;48.42;46.28;55.62;;
64996;Laerm;51545;51.568;6.998;2023-12-22T08:55:17;48.40;46.38;54.57;;
64996;Laerm;51545;51.568;6.998;2023-12-22T08:57:42;48.15;46.25;57.04;;
64996;Laerm;51545;51.568;6.998;2023-12-22T09:00:09;48.37;46.17;56.17;;
64996;Laerm;51545;51.568;6.998;2023-12-22T09:02:35;49.23;46.30;56.96;;
64996;Laerm;51545;51.568;6.998;2023-12-22T09:05:01;51.54;46.36;59.94;;
64996;Laerm;51545;51.568;6.998;2023-12-22T09:07:27;52.36;46.43;59.89;;
64996;Laerm;51545;51.568;6.998;2023-12-22T09:09:53;48.84;46.12;54.31;;
64996;Laerm;51545;51.568;6.998;2023-12-22T09:12:19;49.08;46.71;57.20;;
64996;Laerm;51545;51.568;6.998;2023-12-22T09:14:45;48.73;46.15;54.11;;
64996;Laerm;51545;51.568;6.998;2023-12-22T09:17:11;48.64;46.22;57.74;;
64996;Laerm;51545;51.568;6.998;2023-12-22T09:19:38;50.21;46.23;59.91;;
64996;Laerm;51545;51.568;6.998;2023-12-22T09:22:04;48.50;46.02;65.06;;
64996;Laerm;51545;51.568;6.998;2023-12-22T09:24:30;49.09;46.04;57.74;;
64996;Laerm;51545;51.568;6.998;2023-12-22T09:27:02;48.57;46.39;54.09;;
64996;Laerm;51545;51.568;6.998;2023-12-22T09:29:36;48.97;46.53;56.34;;
64996;Laerm;51545;51.568;6.998;2023-12-22T09:32:02;49.70;46.30;57.71;;
64996;Laerm;51545;51.568;6.998;2023-12-22T09:34:28;49.28;46.70;54.84;;
64996;Laerm;51545;51.568;6.998;2023-12-22T09:36:54;49.35;46.39;58.68;;
64996;Laerm;51545;51.568;6.998;2023-12-22T09:39:20;48.45;46.20;52.93;;
64996;Laerm;51545;51.568;6.998;2023-12-22T09:41:49;48.83;46.35;57.48;;
64996;Laerm;51545;51.568;6.998;2023-12-22T09:44:20;50.12;46.43;57.77;;
64996;Laerm;51545;51.568;6.998;2023-12-22T09:46:49;49.21;46.41;56.57;;
64996;Laerm;51545;51.568;6.998;2023-12-22T09:49:17;48.60;46.46;53.90;;
64996;Laerm;51545;51.568;6.998;2023-12-22T09:51:44;48.63;46.52;55.10;;
64996;Laerm;51545;51.568;6.998;2023-12-22T09:54:13;48.47;46.17;58.59;;
64996;Laerm;51545;51.568;6.998;2023-12-22T09:56:42;48.72;46.54;52.94;;
64996;Laerm;51545;51.568;6.998;2023-12-22T09:59:12;48.63;46.16;53.02;;
64996;Laerm;51545;51.568;6.998;2023-12-22T10:01:44;48.56;46.11;56.25;;
64996;Laerm;51545;51.568;6.998;2023-12-22T10:04:12;48.78;46.13;55.59;;
64996;Laerm;51545;51.568;6.998;2023-12-22T10:06:38;48.45;45.89;57.39;;
64996;Laerm;51545;51.568;6.998;2023-12-22T10:09:05;48.65;46.21;54.53;;
64996;Laerm;51545;51.568;6.998;2023-12-22T10:11:33;49.75;46.44;58.86;;
64996;Laerm;51545;51.568;6.998;2023-12-22T10:14:02;48.90;46.30;58.21;;
64996;Laerm;51545;51.568;6.998;2023-12-22T10:16:28;49.46;46.44;56.63;;
64996;Laerm;51545;51.568;6.998;2023-12-22T10:18:54;49.84;46.57;57.87;;
64996;Laerm;51545;51.568;6.998;2023-12-22T10:21:20;48.90;46.66;55.16;;
64996;Laerm;51545;51.568;6.998;2023-12-22T10:23:46;48.25;46.32;52.94;;
64996;Laerm;51545;51.568;6.998;2023-12-22T10:26:12;49.11;46.33;58.40;;
64996;Laerm;51545;51.568;6.998;2023-12-22T10:28:38;48.09;46.31;56.73;;
64996;Laerm;51545;51.568;6.998;2023-12-22T10:31:07;48.19;46.43;51.98;;
64996;Laerm;51545;51.568;6.998;2023-12-22T10:33:33;49.25;46.66;55.09;;
64996;Laerm;51545;51.568;6.998;2023-12-22T10:35:59;48.42;46.38;53.48;;
64996;Laerm;51545;51.568;6.998;2023-12-22T10:38:27;48.68;46.67;53.42;;
64996;Laerm;51545;51.568;6.998;2023-12-22T10:40:57;48.89;46.32;55.29;;
64996;Laerm;51545;51.568;6.998;2023-12-22T10:43:24;48.79;46.12;56.47;;
64996;Laerm;51545;51.568;6.998;2023-12-22T10:45:52;48.61;46.24;55.50;;
64996;Laerm;51545;51.568;6.998;2023-12-22T10:48:18;48.34;46.53;52.10;;
64996;Laerm;51545;51.568;6.998;2023-12-22T10:50:47;48.14;46.05;52.31;;
64996;Laerm;51545;51.568;6.998;2023-12-22T10:53:14;48.09;46.30;54.82;;
64996;Laerm;51545;51.568;6.998;2023-12-22T10:55:41;47.89;46.03;54.01;;
64996;Laerm;51545;51.568;6.998;2023-12-22T10:58:08;48.65;46.06;54.82;;
64996;Laerm;51545;51.568;6.998;2023-12-22T11:00:37;48.02;46.20;56.90;;
64996;Laerm;51545;51.568;6.998;2023-12-22T11:03:08;48.88;46.22;55.06;;
64996;Laerm;51545;51.568;6.998;2023-12-22T11:05:42;47.90;46.19;51.66;;
64996;Laerm;51545;51.568;6.998;2023-12-22T11:08:11;47.43;46.27;51.72;;
64996;Laerm;51545;51.568;6.998;2023-12-22T11:10:46;47.51;45.92;51.80;;
64996;Laerm;51545;51.568;6.998;2023-12-22T11:13:20;47.77;45.94;52.77;;
64996;Laerm;51545;51.568;6.998;2023-12-22T11:15:51;47.74;46.18;52.06;;
64996;Laerm;51545;51.568;6.998;2023-12-22T11:18:23;49.23;46.01;56.49;;
64996;Laerm;51545;51.568;6.998;2023-12-22T11:20:51;50.17;46.10;60.69;;
64996;Laerm;51545;51.568;6.998;2023-12-22T11:23:20;48.82;45.95;55.62;;
64996;Laerm;51545;51.568;6.998;2023-12-22T11:25:54;49.11;46.13;59.05;;
64996;Laerm;51545;51.568;6.998;2023-12-22T11:28:25;48.10;46.16;52.22;;
64996;Laerm;51545;51.568;6.998;2023-12-22T11:30:55;48.87;46.18;54.37;;
64996;Laerm;51545;51.568;6.998;2023-12-22T11:33:25;48.03;46.10;54.51;;
64996;Laerm;51545;51.568;6.998;2023-12-22T11:35:52;48.59;45.98;54.64;;
64996;Laerm;51545;51.568;6.998;2023-12-22T11:38:20;49.84;46.36;58.03;;
64996;Laerm;51545;51.568;6.998;2023-12-22T11:40:49;48.20;46.25;57.20;;
64996;Laerm;51545;51.568;6.998;2023-12-22T11:43:18;49.34;46.37;60.95;;
64996;Laerm;51545;51.568;6.998;2023-12-22T11:45:45;49.38;46.24;60.40;;
64996;Laerm;51545;51.568;6.998;2023-12-22T11:48:11;48.24;46.37;54.22;;
64996;Laerm;51545;51.568;6.998;2023-12-22T11:50:38;48.06;46.07;52.72;;
64996;Laerm;51545;51.568;6.998;2023-12-22T11:53:20;48.37;46.10;55.34;;
64996;Laerm;51545;51.568;6.998;2023-12-22T11:56:03;49.18;46.22;57.53;;
64996;Laerm;51545;51.568;6.998;2023-12-22T12:01:12;48.79;46.40;57.82;;
64996;Laerm;51545;51.568;6.998;2023-12-22T12:03:49;47.99;46.07;54.75;;
64996;Laerm;51545;51.568;6.998;2023-12-22T12:06:30;48.29;45.94;57.21;;
64996;Laerm;51545;51.568;6.998;2023-12-22T12:08:58;49.09;46.29;55.29;;
64996;Laerm;51545;51.568;6.998;2023-12-22T12:14:29;48.23;45.92;61.15;;
64996;Laerm;51545;51.568;6.998;2023-12-22T12:17:10;48.48;46.23;54.09;;
64996;Laerm;51545;51.568;6.998;2023-12-22T12:19:43;48.43;46.60;54.79;;
64996;Laerm;51545;51.568;6.998;2023-12-22T12:22:12;47.99;46.11;51.94;;
64996;Laerm;51545;51.568;6.998;2023-12-22T12:24:45;48.01;46.01;53.56;;
64996;Laerm;51545;51.568;6.998;2023-12-22T12:27:11;48.59;46.80;53.67;;
64996;Laerm;51545;51.568;6.998;2023-12-22T12:29:42;48.73;46.60;52.08;;
64996;Laerm;51545;51.568;6.998;2023-12-22T12:32:09;48.96;46.12;56.38;;
64996;Laerm;51545;51.568;6.998;2023-12-22T12:34:43;48.53;45.91;57.25;;
64996;Laerm;51545;51.568;6.998;2023-12-22T12:37:10;47.55;45.88;55.15;;
64996;Laerm;51545;51.568;6.998;2023-12-22T12:39:39;48.13;46.10;54.74;;
64996;Laerm;51545;51.568;6.998;2023-12-22T12:42:07;48.84;45.73;54.78;;
64996;Laerm;51545;51.568;6.998;2023-12-22T12:44:35;47.93;45.82;51.92;;
64996;Laerm;51545;51.568;6.998;2023-12-22T12:47:14;48.78;45.87;54.65;;
64996;Laerm;51545;51.568;6.998;2023-12-22T12:49:40;48.47;45.94;55.07;;
64996;Laerm;51545;51.568;6.998;2023-12-22T12:52:12;48.61;45.81;54.67;;
64996;Laerm;51545;51.568;6.998;2023-12-22T12:54:42;47.52;45.93;51.00;;
64996;Laerm;51545;51.568;6.998;2023-12-22T12:57:17;47.33;45.37;51.85;;
64996;Laerm;51545;51.568;6.998;2023-12-22T12:59:50;47.70;45.87;54.26;;
64996;Laerm;51545;51.568;6.998;2023-12-22T13:02:19;47.64;45.82;52.30;;
64996;Laerm;51545;51.568;6.998;2023-12-22T13:04:46;47.42;45.72;51.16;;
64996;Laerm;51545;51.568;6.998;2023-12-22T13:07:23;47.35;45.77;57.56;;
64996;Laerm;51545;51.568;6.998;2023-12-22T13:09:49;47.34;45.45;51.58;;
64996;Laerm;51545;51.568;6.998;2023-12-22T13:12:16;48.68;45.59;55.03;;
64996;Laerm;51545;51.568;6.998;2023-12-22T13:14:43;47.60;45.77;54.21;;
64996;Laerm;51545;51.568;6.998;2023-12-22T13:17:10;47.85;45.89;52.82;;
64996;Laerm;51545;51.568;6.998;2023-12-22T13:19:36;48.17;46.02;54.86;;
64996;Laerm;51545;51.568;6.998;2023-12-22T13:22:02;47.85;46.00;54.42;;
64996;Laerm;51545;51.568;6.998;2023-12-22T13:24:28;47.88;45.71;54.66;;
64996;Laerm;51545;51.568;6.998;2023-12-22T13:27:02;47.76;45.67;55.08;;
64996;Laerm;51545;51.568;6.998;2023-12-22T13:29:29;48.04;45.80;52.94;;
64996;Laerm;51545;51.568;6.998;2023-12-22T13:31:57;47.69;45.93;51.09;;
64996;Laerm;51545;51.568;6.998;2023-12-22T13:34:23;47.36;45.84;51.98;;
64996;Laerm;51545;51.568;6.998;2023-12-22T13:36:50;47.16;45.84;49.83;;
64996;Laerm;51545;51.568;6.998;2023-12-22T13:39:16;47.69;45.98;53.24;;
64996;Laerm;51545;51.568;6.998;2023-12-22T13:41:45;47.50;46.16;49.80;;
64996;Laerm;51545;51.568;6.998;2023-12-22T13:44:12;47.56;45.86;58.71;;
64996;Laerm;51545;51.568;6.998;2023-12-22T13:46:41;49.21;46.02;55.39;;
64996;Laerm;51545;51.568;6.998;2023-12-22T13:49:11;48.28;45.58;54.28;;
64996;Laerm;51545;51.568;6.998;2023-12-22T13:51:44;47.26;45.58;51.58;;
64996;Laerm;51545;51.568;6.998;2023-12-22T13:54:10;47.46;45.74;51.89;;